createdAt,value
2019-06-15T00:03:11.602Z,59.04
2019-06-15T00:07:16.595Z,59.18
2019-06-15T00:11:20.895Z,59.29
2019-06-15T00:15:25.244Z,59.44
2019-06-15T00:19:29.543Z,59.56
2019-06-15T00:23:33.899Z,59.86
2019-06-15T00:27:38.295Z,59.94
2019-06-15T00:31:42.649Z,60.00
2019-06-15T00:35:47.120Z,60.06
2019-06-15T00:39:53.225Z,60.28
2019-06-15T00:43:57.561Z,60.48
2019-06-15T00:48:02.720Z,60.75
2019-06-15T00:52:07.011Z,60.79
2019-06-15T00:56:11.591Z,61.05
2019-06-15T01:00:16.299Z,61.12
2019-06-15T01:04:21.119Z,61.37
2019-06-15T01:08:25.772Z,61.57
2019-06-15T01:12:30.325Z,61.76
2019-06-15T01:16:34.602Z,61.89
2019-06-15T01:20:39.214Z,61.75
2019-06-15T01:24:43.561Z,61.85
2019-06-15T01:28:47.889Z,62.06
2019-06-15T01:32:52.226Z,62.43
2019-06-15T01:36:56.556Z,62.54
2019-06-15T01:41:00.914Z,62.87
2019-06-15T01:45:05.640Z,63.03
2019-06-15T01:49:09.980Z,63.35
2019-06-15T01:53:14.322Z,63.18
2019-06-15T01:57:18.617Z,63.38
2019-06-15T02:01:22.964Z,63.50
2019-06-15T02:05:27.236Z,63.64
2019-06-15T02:09:31.559Z,63.66
2019-06-15T02:13:35.851Z,63.69
2019-06-15T02:17:40.388Z,63.68
2019-06-15T02:21:44.756Z,63.63
2019-06-15T02:25:49.267Z,63.61
2019-06-15T02:29:53.580Z,63.76
2019-06-15T02:33:58.126Z,63.87
2019-06-15T02:38:02.494Z,63.92
2019-06-15T02:42:06.828Z,63.91
2019-06-15T02:46:11.138Z,64.11
2019-06-15T02:50:15.847Z,64.31
2019-06-15T02:54:20.207Z,64.61
2019-06-15T02:58:24.507Z,64.82
2019-06-15T03:02:28.834Z,65.16
2019-06-15T03:06:33.155Z,65.43
2019-06-15T03:10:37.621Z,65.71
2019-06-15T03:14:42.220Z,65.82
2019-06-15T03:18:46.736Z,66.00
2019-06-15T03:22:51.049Z,66.07
2019-06-15T03:26:55.380Z,66.07
2019-06-15T03:30:59.743Z,66.12
2019-06-15T03:35:04.155Z,66.22
2019-06-15T03:39:09.515Z,66.34
2019-06-15T03:43:13.813Z,66.35
2019-06-15T03:47:18.397Z,66.43
2019-06-15T03:51:22.725Z,66.59
2019-06-15T03:55:27.567Z,66.65
2019-06-15T03:59:31.881Z,66.64
2019-06-15T04:03:36.222Z,66.57
2019-06-15T04:07:40.557Z,66.62
2019-06-15T04:11:44.867Z,66.69
2019-06-15T04:15:49.221Z,66.68
2019-06-15T04:19:53.781Z,66.62
2019-06-15T04:23:59.549Z,66.57
2019-06-15T04:28:04.087Z,66.30
2019-06-15T04:32:08.418Z,66.28
2019-06-15T04:36:12.745Z,66.21
2019-06-15T04:40:18.107Z,65.68
2019-06-15T04:44:22.745Z,65.54
2019-06-15T04:48:27.055Z,65.38
2019-06-15T04:52:31.569Z,65.02
2019-06-15T04:56:47.820Z,64.97
2019-06-15T05:00:41.942Z,64.82
2019-06-15T05:04:46.275Z,64.49
2019-06-15T05:08:50.568Z,64.50
2019-06-15T05:12:54.959Z,64.46
2019-06-15T05:16:59.696Z,64.31
2019-06-15T05:21:04.007Z,64.19
2019-06-15T05:25:08.335Z,64.04
2019-06-15T05:29:12.659Z,63.91
2019-06-15T05:33:17.216Z,63.77
2019-06-15T05:37:21.540Z,63.91
2019-06-15T05:41:25.955Z,63.89
2019-06-15T05:45:30.317Z,63.62
2019-06-15T05:49:34.659Z,63.23
2019-06-15T05:53:39.161Z,62.85
2019-06-15T05:57:43.491Z,62.27
2019-06-15T06:01:48.292Z,61.92
2019-06-15T06:05:53.226Z,61.56
2019-06-15T06:09:57.563Z,60.98
2019-06-15T06:14:02.083Z,59.81
2019-06-15T06:18:06.382Z,59.81
2019-06-15T06:22:10.719Z,57.69
2019-06-15T06:26:15.209Z,57.63
2019-06-15T06:30:20.794Z,56.98
2019-06-15T06:34:25.564Z,56.64
2019-06-15T06:38:29.892Z,56.08
2019-06-15T06:42:34.620Z,55.76
2019-06-15T06:46:39.017Z,55.06
2019-06-15T06:50:44.168Z,54.26
2019-06-15T06:54:48.491Z,54.33
2019-06-15T06:58:53.235Z,54.12
2019-06-15T07:02:57.578Z,53.65
2019-06-15T07:07:02.200Z,53.72
2019-06-15T07:11:06.516Z,53.86
2019-06-15T07:15:11.069Z,53.45
2019-06-15T07:19:15.398Z,52.63
2019-06-15T07:23:19.709Z,53.12
2019-06-15T07:27:24.134Z,53.00
2019-06-15T07:31:28.434Z,51.39
2019-06-15T07:35:32.960Z,51.65
2019-06-15T07:39:37.312Z,50.89
2019-06-15T07:43:41.758Z,50.15
2019-06-15T07:47:46.069Z,49.27
2019-06-15T07:51:50.383Z,48.12
2019-06-15T07:55:54.697Z,47.92
2019-06-15T07:59:59.030Z,47.03
2019-06-15T08:04:03.358Z,46.85
2019-06-15T08:08:08.098Z,46.75
2019-06-15T08:12:12.554Z,46.87
2019-06-15T08:16:16.878Z,46.94
2019-06-15T08:20:25.174Z,46.79
2019-06-15T08:24:29.539Z,47.40
2019-06-15T08:28:40.191Z,47.67
2019-06-15T08:32:40.075Z,47.44
2019-06-15T08:36:44.415Z,47.58
2019-06-15T08:40:48.734Z,47.54
2019-06-15T08:44:53.040Z,47.04
2019-06-15T08:48:57.371Z,47.65
2019-06-15T08:53:01.710Z,47.66
2019-06-15T08:57:06.278Z,48.09
2019-06-15T09:01:10.587Z,47.90
2019-06-15T09:05:15.136Z,47.63
2019-06-15T09:09:19.998Z,48.12
2019-06-15T09:13:24.303Z,47.49
2019-06-15T09:17:28.665Z,47.70
2019-06-15T09:21:33.181Z,47.13
2019-06-15T09:25:37.584Z,46.73
2019-06-15T09:29:42.172Z,46.95
2019-06-15T09:33:46.484Z,46.68
2019-06-15T09:37:50.834Z,47.56
2019-06-15T09:41:55.177Z,47.59
2019-06-15T09:45:59.719Z,46.91
2019-06-15T09:50:04.476Z,47.31
2019-06-15T09:54:08.977Z,47.02
2019-06-15T09:58:13.267Z,46.91
2019-06-15T10:02:17.987Z,46.28
2019-06-15T10:06:22.306Z,45.51
2019-06-15T10:10:26.605Z,45.31
2019-06-15T10:14:31.174Z,45.08
2019-06-15T10:18:38.659Z,44.51
2019-06-15T10:22:41.559Z,44.28
2019-06-15T10:26:46.369Z,44.38
2019-06-15T10:30:50.707Z,43.49
2019-06-15T10:34:55.047Z,42.52
2019-06-15T10:38:59.625Z,42.51
2019-06-15T10:43:03.969Z,42.50
2019-06-15T10:47:08.495Z,42.03
2019-06-15T10:51:12.822Z,42.28
2019-06-15T10:55:17.389Z,42.16
2019-06-15T10:59:21.676Z,41.37
2019-06-15T11:03:26.026Z,41.04
2019-06-15T11:07:30.352Z,41.16
2019-06-15T11:11:34.692Z,42.07
2019-06-15T11:15:40.668Z,42.54
2019-06-15T11:19:44.991Z,41.45
2019-06-15T11:23:49.615Z,41.24
2019-06-15T11:27:53.910Z,40.58
2019-06-15T11:31:58.430Z,40.90
2019-06-15T11:36:02.735Z,40.85
2019-06-15T11:40:07.451Z,40.38
2019-06-15T11:44:11.789Z,40.92
2019-06-15T11:48:16.086Z,40.73
2019-06-15T11:52:20.426Z,41.16
2019-06-15T11:56:24.909Z,41.13
2019-06-15T12:00:32.124Z,40.01
2019-06-15T12:04:36.688Z,40.28
2019-06-15T12:08:41.490Z,40.30
2019-06-15T12:12:45.818Z,40.31
2019-06-15T12:16:50.396Z,40.23
2019-06-15T12:20:54.712Z,40.63
2019-06-15T12:24:59.265Z,40.68
2019-06-15T12:29:03.591Z,40.79
2019-06-15T12:33:08.000Z,40.81
2019-06-15T12:37:12.575Z,41.03
2019-06-15T12:41:17.337Z,40.92
2019-06-15T12:45:21.973Z,40.73
2019-06-15T12:49:26.350Z,40.70
2019-06-15T12:53:31.319Z,41.13
2019-06-15T12:57:35.656Z,40.79
2019-06-15T13:01:40.058Z,40.72
2019-06-15T13:05:44.443Z,41.37
2019-06-15T13:09:48.974Z,41.67
2019-06-15T13:13:53.316Z,41.29
2019-06-15T13:17:57.704Z,41.25
2019-06-15T13:22:05.596Z,41.25
2019-06-15T13:26:08.134Z,41.04
2019-06-15T13:30:19.409Z,41.33
2019-06-15T13:34:24.294Z,41.01
2019-06-15T13:38:28.829Z,41.32
2019-06-15T13:42:33.380Z,40.42
2019-06-15T13:46:37.764Z,40.72
2019-06-15T13:50:42.118Z,41.04
2019-06-15T13:54:46.711Z,40.66
2019-06-15T13:58:51.033Z,40.39
2019-06-15T14:02:55.663Z,41.10
2019-06-15T14:07:00.837Z,40.73
2019-06-15T14:11:05.178Z,40.35
2019-06-15T14:15:09.634Z,40.26
2019-06-15T14:19:14.266Z,40.92
2019-06-15T14:23:19.206Z,40.59
2019-06-15T14:27:23.469Z,40.81
2019-06-15T14:31:27.807Z,40.90
2019-06-15T14:35:32.149Z,41.40
2019-06-15T14:39:36.496Z,41.50
2019-06-15T14:43:40.909Z,41.46
2019-06-15T14:47:45.244Z,41.95
2019-06-15T14:51:51.064Z,41.91
2019-06-15T14:55:56.540Z,41.35
2019-06-15T15:00:04.982Z,41.86
2019-06-15T15:04:07.017Z,41.41
2019-06-15T15:08:11.887Z,41.26
2019-06-15T15:12:16.248Z,41.55
2019-06-15T15:16:20.828Z,41.24
2019-06-15T15:20:26.392Z,41.54
2019-06-15T15:24:33.422Z,41.56
2019-06-15T15:28:39.578Z,41.63
2019-06-15T15:32:46.655Z,41.81
2019-06-15T15:36:50.605Z,41.96
2019-06-15T15:40:56.108Z,41.87
2019-06-15T15:45:00.896Z,41.79
2019-06-15T15:49:07.040Z,42.08
2019-06-15T15:53:11.617Z,42.04
2019-06-15T15:57:17.222Z,42.02
2019-06-15T16:01:21.907Z,42.10
2019-06-15T16:05:26.572Z,42.59
2019-06-15T16:09:31.095Z,42.29
2019-06-15T16:13:35.446Z,42.54
2019-06-15T16:17:39.968Z,42.45
2019-06-15T16:21:46.828Z,42.42
2019-06-15T16:25:50.591Z,42.64
2019-06-15T16:29:56.490Z,42.72
2019-06-15T16:34:00.987Z,42.84
2019-06-15T16:38:06.824Z,42.93
2019-06-15T16:42:11.432Z,43.00
2019-06-15T16:46:17.260Z,43.31
2019-06-15T16:50:21.848Z,43.21
2019-06-15T16:54:27.047Z,43.33
2019-06-15T16:58:31.546Z,43.92
2019-06-15T17:02:36.864Z,43.61
2019-06-15T17:06:41.246Z,43.72
2019-06-15T17:10:45.877Z,44.25
2019-06-15T17:14:50.184Z,44.22
2019-06-15T17:18:56.251Z,44.48
2019-06-15T17:23:00.793Z,44.42
2019-06-15T17:27:06.105Z,44.63
2019-06-15T17:31:10.657Z,44.84
2019-06-15T17:35:16.949Z,45.09
2019-06-15T17:39:20.966Z,45.21
2019-06-15T17:43:26.887Z,45.45
2019-06-15T17:47:31.797Z,45.78
2019-06-15T17:51:36.787Z,46.03
2019-06-15T17:55:41.363Z,46.22
2019-06-15T17:59:47.031Z,46.49
2019-06-15T18:03:54.622Z,46.70
2019-06-15T18:08:00.878Z,46.97
2019-06-15T18:12:06.414Z,47.16
2019-06-15T18:16:10.218Z,47.33
2019-06-15T18:20:16.193Z,47.60
2019-06-15T18:24:20.553Z,47.80
2019-06-15T18:28:26.532Z,47.85
2019-06-15T18:32:31.028Z,47.76
2019-06-15T18:36:36.570Z,47.72
2019-06-15T18:40:41.343Z,47.79
2019-06-15T18:44:47.918Z,47.94
2019-06-15T18:48:52.417Z,48.13
2019-06-15T18:52:56.768Z,48.39
2019-06-15T18:57:01.106Z,48.65
2019-06-15T19:01:06.937Z,49.02
2019-06-15T19:05:11.757Z,49.40
2019-06-15T19:09:16.402Z,49.64
2019-06-15T19:13:20.755Z,49.90
2019-06-15T19:17:25.251Z,50.20
2019-06-15T19:21:29.571Z,50.74
2019-06-15T19:25:36.371Z,51.15
2019-06-15T19:29:40.373Z,51.43
2019-06-15T19:33:46.876Z,51.47
2019-06-15T19:37:51.074Z,51.70
2019-06-15T19:41:56.283Z,51.77
2019-06-15T19:46:01.132Z,51.65
2019-06-15T19:50:06.560Z,51.61
2019-06-15T19:54:12.476Z,51.32
2019-06-15T19:58:16.866Z,50.16
2019-06-15T20:02:21.187Z,48.45
2019-06-15T20:06:26.035Z,47.37
2019-06-15T20:10:30.455Z,46.68
2019-06-15T20:14:36.742Z,46.15
2019-06-15T20:18:41.247Z,45.71
2019-06-15T20:22:46.788Z,45.31
2019-06-15T20:26:51.322Z,45.26
2019-06-15T20:30:57.046Z,44.97
2019-06-15T20:35:16.255Z,45.04
2019-06-15T20:39:08.941Z,45.06
2019-06-15T20:43:13.247Z,45.09
2019-06-15T20:47:17.791Z,44.87
2019-06-15T20:51:22.954Z,44.99
2019-06-15T20:55:31.588Z,44.98
2019-06-15T20:59:38.702Z,45.10
2019-06-15T21:03:43.600Z,45.13
2019-06-15T21:07:47.910Z,45.10
2019-06-15T21:11:52.219Z,45.19
2019-06-15T21:15:56.996Z,45.35
2019-06-15T21:20:01.377Z,45.49
2019-06-15T21:24:06.402Z,45.58
2019-06-15T21:28:11.274Z,45.51
2019-06-15T21:32:15.588Z,45.59
2019-06-15T21:36:19.932Z,45.71
2019-06-15T21:40:27.067Z,45.71
2019-06-15T21:44:30.365Z,45.60
2019-06-15T21:48:36.423Z,45.54
2019-06-15T21:52:40.948Z,45.59
2019-06-15T21:56:45.306Z,45.58
2019-06-15T22:01:01.453Z,45.83
2019-06-15T22:05:07.182Z,46.07
2019-06-15T22:09:13.352Z,46.21
2019-06-15T22:13:17.755Z,46.42
2019-06-15T22:17:22.317Z,46.60
2019-06-15T22:21:28.068Z,46.74
2019-06-15T22:25:32.634Z,46.86
2019-06-15T22:29:36.950Z,46.89
2019-06-15T22:33:41.251Z,46.86
2019-06-15T22:37:46.768Z,47.04
2019-06-15T22:41:51.513Z,47.20
2019-06-15T22:45:56.349Z,47.46
2019-06-15T22:50:00.751Z,47.74
2019-06-15T22:54:05.054Z,48.05
2019-06-15T22:58:09.542Z,48.36
2019-06-15T23:02:13.855Z,48.64
2019-06-15T23:06:33.526Z,48.83
2019-06-15T23:10:25.240Z,49.00
2019-06-15T23:14:29.541Z,49.11
2019-06-15T23:18:33.895Z,49.29
2019-06-15T23:22:38.216Z,49.33
2019-06-15T23:26:42.531Z,49.46
2019-06-15T23:30:47.390Z,49.58
2019-06-15T23:34:51.770Z,49.72
2019-06-15T23:38:57.043Z,49.71
2019-06-15T23:43:01.441Z,49.88
2019-06-15T23:47:06.200Z,50.02
2019-06-15T23:51:10.518Z,50.14
2019-06-15T23:55:14.951Z,50.33
2019-06-15T23:59:19.265Z,50.49
